createdAt,value
2019-05-12T00:00:36.144Z,0.60
2019-05-12T00:03:02.787Z,0.50
2019-05-12T00:05:29.489Z,0.50
2019-05-12T00:07:58.712Z,0.62
2019-05-12T00:10:24.654Z,0.60
2019-05-12T00:12:51.300Z,0.50
2019-05-12T00:15:19.259Z,0.50
2019-05-12T00:17:48.093Z,0.50
2019-05-12T00:20:17.777Z,0.60
2019-05-12T00:22:45.530Z,0.70
2019-05-12T00:25:12.278Z,0.50
2019-05-12T00:27:39.153Z,0.70
2019-05-12T00:30:09.647Z,0.50
2019-05-12T00:32:34.845Z,0.50
2019-05-12T00:35:02.480Z,0.50
2019-05-12T00:37:29.056Z,0.40
2019-05-12T00:39:58.174Z,0.53
2019-05-12T00:42:24.253Z,0.40
2019-05-12T00:44:52.045Z,0.55
2019-05-12T00:47:18.908Z,0.57
2019-05-12T00:49:48.563Z,0.33
2019-05-12T00:52:18.640Z,0.40
2019-05-12T00:54:48.090Z,0.30
2019-05-12T00:57:14.556Z,0.37
2019-05-12T00:59:41.109Z,0.40
2019-05-12T01:02:08.056Z,0.28
2019-05-12T01:04:34.867Z,0.55
2019-05-12T01:07:01.494Z,0.45
2019-05-12T01:09:28.297Z,0.30
2019-05-12T01:11:55.118Z,0.37
2019-05-12T01:14:21.723Z,0.53
2019-05-12T01:16:49.012Z,0.30
2019-05-12T01:19:15.642Z,0.50
2019-05-12T01:21:42.277Z,0.30
2019-05-12T01:24:09.186Z,0.20
2019-05-12T01:26:35.921Z,0.30
2019-05-12T01:29:02.980Z,0.50
2019-05-12T01:31:31.376Z,0.40
2019-05-12T01:33:58.593Z,0.40
2019-05-12T01:36:25.412Z,0.35
2019-05-12T01:38:52.012Z,0.40
2019-05-12T01:41:19.651Z,0.40
2019-05-12T01:43:48.639Z,0.47
2019-05-12T01:46:14.724Z,0.30
2019-05-12T01:48:41.352Z,0.25
2019-05-12T01:51:08.439Z,0.30
2019-05-12T01:53:37.633Z,0.30
2019-05-12T01:56:03.878Z,0.30
2019-05-12T01:58:30.521Z,0.33
2019-05-12T02:00:58.925Z,0.35
2019-05-12T02:03:25.692Z,0.50
2019-05-12T02:05:57.944Z,0.40
2019-05-12T02:08:27.911Z,0.47
2019-05-12T02:10:59.367Z,0.20
2019-05-12T02:13:27.689Z,0.20
2019-05-12T02:15:54.461Z,0.40
2019-05-12T02:18:21.092Z,0.42
2019-05-12T02:20:48.338Z,0.45
2019-05-12T02:23:15.140Z,0.30
2019-05-12T02:25:41.742Z,0.30
2019-05-12T02:28:09.312Z,0.30
2019-05-12T02:30:40.691Z,0.35
2019-05-12T02:33:06.056Z,0.30
2019-05-12T02:35:35.419Z,0.20
2019-05-12T02:38:04.423Z,0.25
2019-05-12T02:40:29.807Z,0.42
2019-05-12T02:42:56.491Z,0.30
2019-05-12T02:45:25.208Z,0.28
2019-05-12T02:47:54.369Z,0.30
2019-05-12T02:50:27.719Z,0.28
2019-05-12T02:52:54.741Z,0.40
2019-05-12T02:55:25.396Z,0.20
2019-05-12T02:57:54.917Z,0.30
2019-05-12T03:00:24.218Z,0.30
2019-05-12T03:02:54.747Z,0.20
2019-05-12T03:05:21.073Z,0.20
2019-05-12T03:07:48.470Z,0.30
2019-05-12T03:10:15.312Z,0.33
2019-05-12T03:12:44.955Z,0.30
2019-05-12T03:15:10.573Z,0.30
2019-05-12T03:17:37.209Z,0.40
2019-05-12T03:20:05.600Z,0.30
2019-05-12T03:22:35.364Z,0.35
2019-05-12T03:25:14.764Z,0.20
2019-05-12T03:27:34.863Z,0.20
2019-05-12T03:30:00.193Z,0.35
2019-05-12T03:32:28.200Z,0.30
2019-05-12T03:34:57.851Z,0.20
2019-05-12T03:37:30.940Z,0.30
2019-05-12T03:39:54.634Z,0.40
2019-05-12T03:42:24.792Z,0.40
2019-05-12T03:44:49.903Z,0.30
2019-05-12T03:47:16.550Z,0.40
2019-05-12T03:49:45.455Z,0.30
2019-05-12T03:52:15.041Z,0.20
2019-05-12T03:54:40.413Z,0.40
2019-05-12T03:57:07.032Z,0.40
2019-05-12T03:59:34.881Z,0.30
2019-05-12T04:02:04.773Z,0.20
2019-05-12T04:04:30.332Z,0.42
2019-05-12T04:06:56.940Z,0.30
2019-05-12T04:09:24.687Z,0.30
2019-05-12T04:11:54.565Z,0.33
2019-05-12T04:14:20.052Z,0.20
2019-05-12T04:16:46.663Z,0.30
2019-05-12T04:19:14.691Z,0.30
2019-05-12T04:21:45.535Z,0.10
2019-05-12T04:24:14.326Z,0.25
2019-05-12T04:26:40.723Z,0.20
2019-05-12T04:29:07.352Z,0.28
2019-05-12T04:31:35.219Z,0.25
2019-05-12T04:34:05.221Z,0.30
2019-05-12T04:36:35.520Z,0.20
2019-05-12T04:39:04.216Z,0.25
2019-05-12T04:41:30.635Z,0.65
2019-05-12T04:43:57.407Z,0.20
2019-05-12T04:46:25.378Z,0.23
2019-05-12T04:48:54.689Z,0.33
2019-05-12T04:51:21.422Z,0.40
2019-05-12T04:53:48.032Z,0.30
2019-05-12T04:56:20.087Z,0.53
2019-05-12T04:58:45.008Z,0.30
2019-05-12T05:01:15.589Z,0.20
2019-05-12T05:03:44.073Z,0.37
2019-05-12T05:06:10.007Z,0.30
2019-05-12T05:08:37.751Z,0.30
2019-05-12T05:11:04.392Z,0.33
2019-05-12T05:13:36.630Z,0.30
2019-05-12T05:16:00.258Z,0.70
2019-05-12T05:18:28.027Z,0.40
2019-05-12T05:20:55.625Z,0.40
2019-05-12T05:23:24.143Z,0.30
2019-05-12T05:25:50.808Z,0.60
2019-05-12T05:28:17.421Z,0.40
2019-05-12T05:30:45.624Z,0.30
2019-05-12T05:33:14.521Z,0.30
2019-05-12T05:35:43.626Z,0.50
2019-05-12T05:38:10.867Z,0.40
2019-05-12T05:40:39.012Z,0.35
2019-05-12T05:43:18.154Z,0.50
2019-05-12T05:45:35.426Z,0.50
2019-05-12T05:48:07.460Z,0.35
2019-05-12T05:50:34.341Z,0.28
2019-05-12T05:53:03.986Z,0.30
2019-05-12T05:55:30.869Z,0.40
2019-05-12T05:57:59.822Z,0.40
2019-05-12T06:00:27.368Z,0.30
2019-05-12T06:02:54.608Z,0.50
2019-05-12T06:05:26.461Z,0.50
2019-05-12T06:07:53.441Z,0.40
2019-05-12T06:10:19.463Z,0.60
2019-05-12T06:12:50.678Z,0.40
2019-05-12T06:15:14.731Z,0.40
2019-05-12T06:17:43.714Z,0.40
2019-05-12T06:20:10.173Z,0.35
2019-05-12T06:22:36.811Z,0.30
2019-05-12T06:25:05.217Z,0.47
2019-05-12T06:27:35.720Z,0.53
2019-05-12T06:30:05.936Z,0.80
2019-05-12T06:32:30.023Z,0.50
2019-05-12T06:35:02.241Z,0.40
2019-05-12T06:37:28.692Z,0.60
2019-05-12T06:39:56.510Z,0.40
2019-05-12T06:42:25.672Z,0.70
2019-05-12T06:44:55.040Z,0.60
2019-05-12T06:47:20.925Z,1.00
2019-05-12T06:49:56.391Z,0.70
2019-05-12T06:52:23.656Z,0.50
2019-05-12T06:54:54.686Z,0.60
2019-05-12T06:57:25.299Z,0.75
2019-05-12T06:59:51.431Z,0.72
2019-05-12T07:02:16.224Z,0.72
2019-05-12T07:04:47.470Z,0.70
2019-05-12T07:07:11.427Z,0.80
2019-05-12T07:09:50.959Z,0.90
2019-05-12T07:12:07.332Z,0.82
2019-05-12T07:14:36.046Z,1.10
2019-05-12T07:17:06.027Z,1.05
2019-05-12T07:19:33.796Z,0.80
2019-05-12T07:22:00.732Z,1.17
2019-05-12T07:24:27.329Z,1.30
2019-05-12T07:27:02.755Z,1.05
2019-05-12T07:29:23.886Z,1.05
2019-05-12T07:31:50.674Z,1.10
2019-05-12T07:34:17.271Z,1.20
2019-05-12T07:36:46.224Z,1.05
2019-05-12T07:39:15.427Z,1.37
2019-05-12T07:41:50.723Z,1.52
2019-05-12T07:44:14.311Z,2.27
2019-05-12T07:46:45.701Z,2.10
2019-05-12T07:49:09.574Z,1.85
2019-05-12T07:51:40.527Z,1.87
2019-05-12T07:54:05.778Z,1.75
2019-05-12T07:56:35.680Z,1.70
2019-05-12T07:59:01.264Z,1.87
2019-05-12T08:01:27.946Z,2.65
2019-05-12T08:03:57.179Z,2.80
2019-05-12T08:06:24.473Z,3.30
2019-05-12T08:08:58.116Z,2.98
2019-05-12T08:11:23.599Z,2.52
2019-05-12T08:13:54.231Z,2.60
2019-05-12T08:16:25.633Z,2.27
2019-05-12T08:18:50.331Z,2.33
2019-05-12T08:21:16.975Z,2.33
2019-05-12T08:23:44.422Z,2.20
2019-05-12T08:26:18.281Z,2.27
2019-05-12T08:28:43.988Z,2.58
2019-05-12T08:31:10.870Z,2.15
2019-05-12T08:33:37.446Z,1.90
2019-05-12T08:36:11.506Z,1.70
2019-05-12T08:38:33.690Z,1.60
2019-05-12T08:41:00.492Z,1.50
2019-05-12T08:43:27.501Z,1.40
2019-05-12T08:45:55.434Z,2.00
2019-05-12T08:48:25.057Z,1.85
2019-05-12T08:50:54.647Z,1.95
2019-05-12T08:53:23.553Z,1.90
2019-05-12T08:55:53.854Z,2.27
2019-05-12T08:58:31.627Z,2.00
2019-05-12T09:00:50.693Z,2.22
2019-05-12T09:03:20.338Z,2.37
2019-05-12T09:05:46.805Z,2.40
2019-05-12T09:08:14.590Z,2.30
2019-05-12T09:10:41.242Z,2.60
2019-05-12T09:13:08.971Z,3.20
2019-05-12T09:15:35.855Z,2.60
2019-05-12T09:18:04.862Z,3.20
2019-05-12T09:20:33.153Z,3.35
2019-05-12T09:23:01.900Z,3.50
2019-05-12T09:25:29.345Z,3.22
2019-05-12T09:27:55.955Z,2.70
2019-05-12T09:30:27.268Z,2.72
2019-05-12T09:32:56.864Z,2.55
2019-05-12T09:35:23.661Z,2.92
2019-05-12T09:37:50.355Z,2.80
2019-05-12T09:40:20.718Z,2.72
2019-05-12T09:42:46.812Z,2.33
2019-05-12T09:45:13.923Z,2.90
2019-05-12T09:47:40.719Z,2.30
2019-05-12T09:50:09.809Z,2.80
2019-05-12T09:52:36.313Z,2.67
2019-05-12T09:55:04.334Z,2.67
2019-05-12T09:57:34.710Z,2.92
2019-05-12T10:00:01.460Z,3.10
2019-05-12T10:02:28.230Z,3.20
2019-05-12T10:04:59.244Z,2.58
2019-05-12T10:07:23.719Z,3.02
2019-05-12T10:09:55.020Z,3.02
2019-05-12T10:12:18.898Z,3.33
2019-05-12T10:14:47.378Z,3.40
2019-05-12T10:17:14.725Z,2.87
2019-05-12T10:19:43.268Z,3.05
2019-05-12T10:22:09.840Z,3.35
2019-05-12T10:24:41.507Z,2.80
2019-05-12T10:27:06.111Z,2.55
2019-05-12T10:29:32.747Z,2.15
2019-05-12T10:31:59.386Z,1.80
2019-05-12T10:34:29.248Z,1.90
2019-05-12T10:36:54.610Z,1.92
2019-05-12T10:39:21.255Z,2.12
2019-05-12T10:41:47.904Z,3.02
2019-05-12T10:44:14.677Z,2.90
2019-05-12T10:46:42.516Z,2.85
2019-05-12T10:49:09.303Z,4.12
2019-05-12T10:51:35.910Z,5.05
2019-05-12T10:54:12.104Z,4.70
2019-05-12T10:56:31.361Z,5.72
2019-05-12T10:58:57.959Z,5.55
2019-05-12T11:01:24.639Z,5.50
2019-05-12T11:03:52.602Z,5.55
2019-05-12T11:06:20.036Z,5.85
2019-05-12T11:08:51.119Z,6.40
2019-05-12T11:11:16.413Z,6.28
2019-05-12T11:13:48.314Z,6.10
2019-05-12T11:16:14.689Z,4.90
2019-05-12T11:18:40.335Z,4.47
2019-05-12T11:21:07.050Z,4.40
2019-05-12T11:23:34.481Z,5.20
2019-05-12T11:26:01.230Z,5.50
2019-05-12T11:28:28.084Z,5.33
2019-05-12T11:30:54.789Z,6.00
2019-05-12T11:33:23.627Z,5.67
2019-05-12T11:35:50.980Z,6.67
2019-05-12T11:38:21.364Z,7.05
2019-05-12T11:40:49.806Z,6.53
2019-05-12T11:43:19.641Z,6.53
2019-05-12T11:45:48.125Z,5.70
2019-05-12T11:48:14.699Z,5.28
2019-05-12T11:50:49.396Z,4.70
2019-05-12T11:53:10.685Z,3.92
2019-05-12T11:55:37.299Z,4.12
2019-05-12T11:58:06.895Z,3.30
2019-05-12T12:00:34.379Z,3.45
2019-05-12T12:05:44.402Z,3.72
2019-05-12T12:08:11.152Z,3.00
2019-05-12T12:10:40.593Z,3.12
2019-05-12T12:13:07.861Z,3.10
2019-05-12T12:15:34.709Z,2.92
2019-05-12T12:18:04.018Z,2.92
2019-05-12T12:20:29.907Z,3.02
2019-05-12T12:23:00.176Z,2.70
2019-05-12T12:25:29.749Z,2.60
2019-05-12T12:27:56.400Z,2.80
2019-05-12T12:30:23.753Z,2.75
2019-05-12T12:32:57.156Z,3.47
2019-05-12T12:35:23.186Z,3.90
2019-05-12T12:37:49.416Z,2.95
2019-05-12T12:40:16.655Z,2.30
2019-05-12T12:42:47.067Z,2.80
2019-05-12T12:45:38.432Z,2.90
2019-05-12T12:48:01.991Z,2.60
2019-05-12T12:50:30.600Z,2.65
2019-05-12T12:52:57.441Z,4.25
2019-05-12T12:55:24.307Z,4.37
2019-05-12T12:57:52.043Z,6.20
2019-05-12T13:00:29.736Z,5.72
2019-05-12T13:02:49.363Z,5.87
2019-05-12T13:05:17.103Z,5.50
2019-05-12T13:07:44.013Z,11.08
2019-05-12T13:10:11.045Z,11.03
2019-05-12T13:12:37.638Z,10.03
2019-05-12T13:15:05.851Z,8.83
2019-05-12T13:17:40.030Z,8.05
2019-05-12T13:20:02.371Z,8.18
2019-05-12T13:22:29.745Z,7.72
2019-05-12T13:24:58.226Z,7.35
2019-05-12T13:27:29.133Z,8.63
2019-05-12T13:29:54.186Z,8.50
2019-05-12T13:32:25.955Z,9.45
2019-05-12T13:34:52.031Z,10.93
2019-05-12T13:37:19.591Z,10.45
2019-05-12T13:39:55.236Z,9.35
2019-05-12T13:42:15.041Z,8.40
2019-05-12T13:44:43.596Z,8.10
2019-05-12T13:47:14.019Z,8.20
2019-05-12T13:49:45.375Z,8.28
2019-05-12T13:52:09.702Z,8.55
2019-05-12T13:54:36.578Z,9.75
2019-05-12T13:57:11.628Z,10.70
2019-05-12T13:59:33.943Z,10.05
2019-05-12T14:02:00.385Z,11.70
2019-05-12T14:04:27.804Z,12.58
2019-05-12T14:06:56.889Z,12.43
2019-05-12T14:09:23.996Z,10.40
2019-05-12T14:11:54.850Z,10.68
2019-05-12T14:14:23.893Z,9.35
2019-05-12T14:16:58.884Z,9.03
2019-05-12T14:19:23.314Z,10.00
2019-05-12T14:21:49.477Z,11.78
2019-05-12T14:24:17.204Z,13.22
2019-05-12T14:26:45.469Z,12.75
2019-05-12T14:29:13.808Z,12.03
2019-05-12T14:31:48.491Z,10.05
2019-05-12T14:34:10.549Z,11.70
2019-05-12T14:36:38.114Z,13.15
2019-05-12T14:39:10.145Z,13.03
2019-05-12T14:41:35.959Z,13.55
2019-05-12T14:44:03.662Z,16.37
2019-05-12T14:46:30.480Z,15.15
2019-05-12T14:48:58.139Z,13.83
2019-05-12T14:51:24.867Z,9.95
2019-05-12T14:53:53.440Z,8.58
2019-05-12T14:56:19.942Z,8.33
2019-05-12T14:58:50.221Z,7.85
2019-05-12T15:01:16.303Z,7.12
2019-05-12T15:03:47.625Z,8.38
2019-05-12T15:06:14.115Z,6.15
2019-05-12T15:08:41.030Z,17.02
2019-05-12T15:11:07.897Z,21.40
2019-05-12T15:13:34.689Z,20.77
2019-05-12T15:16:01.363Z,20.62
2019-05-12T15:18:27.992Z,19.73
2019-05-12T15:20:54.654Z,17.27
2019-05-12T15:23:23.846Z,11.85
2019-05-12T15:25:53.660Z,9.25
2019-05-12T15:28:20.118Z,7.72
2019-05-12T15:30:48.600Z,6.05
2019-05-12T15:33:15.220Z,5.20
2019-05-12T15:35:43.973Z,3.20
2019-05-12T15:38:15.060Z,2.72
2019-05-12T15:40:39.760Z,3.33
2019-05-12T15:43:09.170Z,17.92
2019-05-12T15:45:35.869Z,33.20
2019-05-12T15:48:04.095Z,13.40
2019-05-12T15:50:31.001Z,8.40
2019-05-12T15:52:57.619Z,4.12
2019-05-12T15:55:32.981Z,3.50
2019-05-12T15:57:55.731Z,3.30
2019-05-12T16:00:24.455Z,3.70
2019-05-12T16:02:53.336Z,4.30
2019-05-12T16:05:24.841Z,4.62
2019-05-12T16:07:48.683Z,10.53
2019-05-12T16:10:16.324Z,14.03
2019-05-12T16:12:43.698Z,17.10
2019-05-12T16:15:17.063Z,16.95
2019-05-12T16:17:40.221Z,13.43
2019-05-12T16:20:07.334Z,14.58
2019-05-12T16:22:38.833Z,13.62
2019-05-12T16:25:06.436Z,10.70
2019-05-12T16:27:37.087Z,10.95
2019-05-12T16:30:04.550Z,11.93
2019-05-12T16:32:39.472Z,10.93
2019-05-12T16:34:59.183Z,7.33
2019-05-12T16:37:31.348Z,5.22
2019-05-12T16:39:54.730Z,3.40
2019-05-12T16:42:23.483Z,2.65
2019-05-12T16:44:49.923Z,2.83
2019-05-12T16:47:18.651Z,2.70
2019-05-12T16:49:46.350Z,2.50
2019-05-12T16:52:13.882Z,2.42
2019-05-12T16:54:46.037Z,4.05
2019-05-12T16:59:42.819Z,2.58
2019-05-12T17:02:10.685Z,2.50
2019-05-12T17:04:37.544Z,2.67
2019-05-12T17:07:04.156Z,2.90
2019-05-12T17:09:33.088Z,3.37
2019-05-12T17:11:59.315Z,3.17
2019-05-12T17:14:28.569Z,2.90
2019-05-12T17:16:55.132Z,2.22
2019-05-12T17:19:23.612Z,2.10
2019-05-12T17:21:57.576Z,1.82
2019-05-12T17:24:18.842Z,1.95
2019-05-12T17:26:45.453Z,1.80
2019-05-12T17:29:13.975Z,1.32
2019-05-12T17:31:40.666Z,1.95
2019-05-12T17:34:09.233Z,2.20
2019-05-12T17:36:35.833Z,2.52
2019-05-12T17:39:05.532Z,1.60
2019-05-12T17:41:40.328Z,1.75
2019-05-12T17:44:04.327Z,1.95
2019-05-12T17:46:32.285Z,1.50
2019-05-12T17:48:59.604Z,1.55
2019-05-12T17:51:30.788Z,1.82
2019-05-12T17:53:55.207Z,2.58
2019-05-12T17:56:25.322Z,1.60
2019-05-12T17:58:50.307Z,1.50
2019-05-12T18:01:23.104Z,1.47
2019-05-12T18:03:50.607Z,1.60
2019-05-12T18:06:15.267Z,2.00
2019-05-12T18:08:44.326Z,1.87
2019-05-12T18:11:11.995Z,1.37
2019-05-12T18:13:40.141Z,2.52
2019-05-12T18:16:11.567Z,1.50
2019-05-12T18:18:38.052Z,1.50
2019-05-12T18:21:05.300Z,1.50
2019-05-12T18:23:34.184Z,1.30
2019-05-12T18:26:03.198Z,1.47
2019-05-12T18:28:29.543Z,1.67
2019-05-12T18:30:56.481Z,1.50
2019-05-12T18:33:33.249Z,1.65
2019-05-12T18:35:54.275Z,1.37
2019-05-12T18:38:26.106Z,1.20
2019-05-12T18:40:49.955Z,1.10
2019-05-12T18:43:16.578Z,1.27
2019-05-12T18:45:43.185Z,1.35
2019-05-12T18:48:17.874Z,1.50
2019-05-12T18:50:38.251Z,1.30
2019-05-12T18:53:04.887Z,1.22
2019-05-12T18:55:35.898Z,1.12
2019-05-12T18:58:00.364Z,1.50
2019-05-12T19:00:27.849Z,1.32
2019-05-12T19:02:54.745Z,1.70
2019-05-12T19:05:30.625Z,2.10
2019-05-12T19:08:07.306Z,1.72
2019-05-12T19:10:38.599Z,1.67
2019-05-12T19:13:06.486Z,1.40
2019-05-12T19:15:33.311Z,1.10
2019-05-12T19:17:59.471Z,0.90
2019-05-12T19:20:26.088Z,0.95
2019-05-12T19:22:59.380Z,0.75
2019-05-12T19:25:23.624Z,1.20
2019-05-12T19:27:55.468Z,0.90
2019-05-12T19:30:24.781Z,1.17
2019-05-12T19:32:46.872Z,0.80
2019-05-12T19:35:20.045Z,1.50
2019-05-12T19:37:45.389Z,1.20
2019-05-12T19:40:16.656Z,0.78
2019-05-12T19:42:41.368Z,0.72
2019-05-12T19:45:16.327Z,0.47
2019-05-12T19:47:38.546Z,0.60
2019-05-12T19:50:10.662Z,0.53
2019-05-12T19:52:34.351Z,0.60
2019-05-12T19:55:03.494Z,0.88
2019-05-12T19:57:30.120Z,0.50
2019-05-12T19:59:57.302Z,4.10
2019-05-12T20:02:23.895Z,4.97
2019-05-12T20:04:52.071Z,5.40
2019-05-12T20:07:19.192Z,5.53
2019-05-12T20:09:55.099Z,5.72
2019-05-12T20:12:18.745Z,6.05
2019-05-12T20:14:43.740Z,6.15
2019-05-12T20:17:10.331Z,7.05
2019-05-12T20:19:36.903Z,6.97
2019-05-12T20:22:04.776Z,7.42
2019-05-12T20:24:31.339Z,6.67
2019-05-12T20:26:59.387Z,6.37
2019-05-12T20:29:33.448Z,4.42
2019-05-12T20:31:54.600Z,4.50
2019-05-12T20:34:21.190Z,3.00
2019-05-12T20:36:48.148Z,2.70
2019-05-12T20:39:21.406Z,3.70
2019-05-12T20:41:44.681Z,3.58
2019-05-12T20:44:17.085Z,4.50
2019-05-12T20:46:39.987Z,3.42
2019-05-12T20:49:10.623Z,3.10
2019-05-12T20:51:35.018Z,2.50
2019-05-12T20:54:05.538Z,2.40
2019-05-12T20:56:30.526Z,2.50
2019-05-12T20:58:57.193Z,2.58
2019-05-12T21:01:28.369Z,2.75
2019-05-12T21:03:52.662Z,3.30
2019-05-12T21:06:19.261Z,3.33
2019-05-12T21:08:53.318Z,3.45
2019-05-12T21:11:14.495Z,2.60
2019-05-12T21:13:43.797Z,3.10
2019-05-12T21:16:19.367Z,3.15
2019-05-12T21:18:47.856Z,2.40
2019-05-12T21:21:13.740Z,2.15
2019-05-12T21:23:45.726Z,2.37
2019-05-12T21:26:12.676Z,2.10
2019-05-12T21:28:46.802Z,1.65
2019-05-12T21:31:14.176Z,2.60
2019-05-12T21:37:10.713Z,2.10
2019-05-12T21:40:41.654Z,2.65
2019-05-12T22:03:17.234Z,2.30
2019-05-12T22:07:03.892Z,2.40
2019-05-12T22:34:58.426Z,2.75
2019-05-12T22:38:04.224Z,2.90
2019-05-12T22:40:54.845Z,2.85
2019-05-12T22:43:31.346Z,3.00
2019-05-12T22:52:26.144Z,3.17
2019-05-12T22:55:32.405Z,3.15
2019-05-12T23:01:41.312Z,2.60
2019-05-12T23:04:03.822Z,3.20
2019-05-12T23:06:35.837Z,3.00
2019-05-12T23:08:59.256Z,3.50
2019-05-12T23:11:32.219Z,3.08
2019-05-12T23:13:54.585Z,3.15
2019-05-12T23:16:25.933Z,3.00
2019-05-12T23:18:50.872Z,2.90
2019-05-12T23:21:17.774Z,2.90
2019-05-12T23:23:49.953Z,3.10
2019-05-12T23:26:13.977Z,3.15
2019-05-12T23:28:46.823Z,2.77
2019-05-12T23:31:09.347Z,3.05
2019-05-12T23:33:36.680Z,3.12
2019-05-12T23:36:04.090Z,2.58
2019-05-12T23:38:30.911Z,3.05
2019-05-12T23:40:58.618Z,3.20
2019-05-12T23:43:25.270Z,3.22
2019-05-12T23:45:53.383Z,2.92
2019-05-12T23:48:20.178Z,3.20
2019-05-12T23:50:47.567Z,2.85
2019-05-12T23:53:14.285Z,2.70
2019-05-12T23:55:40.874Z,2.83
2019-05-12T23:58:08.697Z,2.25
